createdAt,value
2022-09-21T00:01:24.856Z,9.30
2022-09-21T00:03:54.279Z,7.60
2022-09-21T00:06:23.219Z,7.10
2022-09-21T00:08:50.775Z,5.50
2022-09-21T00:11:22.800Z,7.80
2022-09-21T00:13:53.510Z,9.50
2022-09-21T00:16:20.757Z,5.60
2022-09-21T00:18:47.965Z,6.20
2022-09-21T00:21:15.872Z,7.70
2022-09-21T00:23:43.281Z,8.60
2022-09-21T00:26:16.128Z,9.10
2022-09-21T00:31:14.230Z,12.80
2022-09-21T00:33:45.667Z,10.30
2022-09-21T00:36:18.823Z,5.90
2022-09-21T00:38:50.363Z,6.50
2022-09-21T00:41:16.879Z,10.50
2022-09-21T00:43:48.970Z,6.10
2022-09-21T00:46:27.935Z,7.20
2022-09-21T00:48:55.223Z,6.50
2022-09-21T00:51:22.071Z,5.60
2022-09-21T00:53:53.386Z,8.30
2022-09-21T00:56:43.638Z,7.10
2022-09-21T00:59:13.868Z,7.40
2022-09-21T01:01:42.962Z,7.20
2022-09-21T01:04:12.088Z,5.70
2022-09-21T01:06:40.913Z,6.10
2022-09-21T01:09:09.597Z,5.70
2022-09-21T01:11:48.319Z,6.80
2022-09-21T01:15:10.094Z,7.40
2022-09-21T01:18:02.646Z,9.40
2022-09-21T01:20:51.283Z,8.40
2022-09-21T01:24:07.623Z,6.40
2022-09-21T01:27:24.487Z,8.50
2022-09-21T01:30:17.364Z,8.20
2022-09-21T01:33:03.512Z,7.80
2022-09-21T01:35:47.744Z,8.80
2022-09-21T01:38:26.685Z,6.50
2022-09-21T01:41:00.959Z,5.90
2022-09-21T01:43:35.506Z,7.80
2022-09-21T01:46:04.916Z,4.50
2022-09-21T01:48:39.037Z,5.20
2022-09-21T01:51:10.786Z,7.70
2022-09-21T01:53:51.365Z,6.40
2022-09-21T01:56:42.042Z,5.60
2022-09-21T01:59:24.226Z,5.30
2022-09-21T02:02:05.537Z,7.20
2022-09-21T02:04:35.315Z,4.70
2022-09-21T02:07:03.204Z,4.90
2022-09-21T02:09:31.499Z,5.40
2022-09-21T02:12:01.463Z,6.20
2022-09-21T02:14:29.756Z,5.20
2022-09-21T02:17:07.853Z,6.90
2022-09-21T02:19:44.614Z,5.20
2022-09-21T02:22:22.626Z,6.70
2022-09-21T02:24:56.306Z,6.80
2022-09-21T02:27:51.839Z,7.50
2022-09-21T02:30:22.274Z,5.00
2022-09-21T02:33:23.935Z,5.80
2022-09-21T02:36:35.846Z,6.90
2022-09-21T02:39:10.808Z,4.80
2022-09-21T02:41:44.246Z,6.20
2022-09-21T02:44:33.859Z,5.40
2022-09-21T02:47:19.982Z,6.30
2022-09-21T02:49:57.140Z,5.20
2022-09-21T02:52:25.641Z,5.60
2022-09-21T02:54:53.856Z,5.70
2022-09-21T02:57:23.520Z,5.20
2022-09-21T02:59:52.550Z,5.10
2022-09-21T03:02:20.586Z,4.60
2022-09-21T03:04:50.112Z,4.70
2022-09-21T03:07:18.158Z,5.60
2022-09-21T03:09:46.871Z,5.40
2022-09-21T03:12:14.914Z,4.70
2022-09-21T03:14:42.965Z,4.60
2022-09-21T03:17:10.950Z,5.00
2022-09-21T03:19:38.871Z,5.50
2022-09-21T03:22:06.775Z,5.70
2022-09-21T03:24:46.893Z,5.00
2022-09-21T03:27:19.105Z,6.80
2022-09-21T03:29:47.982Z,4.30
2022-09-21T03:32:16.492Z,4.00
2022-09-21T03:34:44.708Z,5.60
2022-09-21T03:37:13.116Z,6.10
2022-09-21T03:39:47.669Z,4.60
2022-09-21T03:48:33.946Z,4.50
2022-09-21T03:51:37.018Z,6.90
2022-09-21T03:54:06.885Z,4.10
2022-09-21T03:56:37.767Z,7.30
2022-09-21T03:59:38.508Z,4.70
2022-09-21T04:02:10.755Z,8.10
2022-09-21T04:04:53.892Z,7.70
2022-09-21T04:08:16.561Z,5.20
2022-09-21T04:20:52.094Z,8.90
2022-09-21T04:21:43.342Z,7.60
2022-09-21T04:24:50.170Z,7.70
2022-09-21T04:27:19.260Z,9.30
2022-09-21T04:29:47.486Z,5.80
2022-09-21T04:32:15.783Z,8.60
2022-09-21T04:34:47.347Z,5.10
2022-09-21T04:37:17.803Z,6.80
2022-09-21T04:39:45.981Z,5.10
2022-09-21T04:49:35.161Z,8.00
2022-09-21T04:52:03.480Z,5.50
2022-09-21T04:54:31.733Z,7.10
2022-09-21T04:56:59.469Z,9.70
2022-09-21T04:59:27.345Z,5.50
2022-09-21T05:01:55.097Z,6.60
2022-09-21T05:04:22.925Z,9.20
2022-09-21T05:06:51.226Z,5.90
2022-09-21T05:09:37.698Z,6.00
2022-09-21T05:12:05.778Z,4.10
2022-09-21T05:14:33.696Z,5.70
2022-09-21T05:17:01.624Z,6.10
2022-09-21T05:19:29.462Z,8.90
2022-09-21T05:21:57.328Z,7.80
2022-09-21T05:24:25.156Z,7.10
2022-09-21T05:26:53.020Z,7.70
2022-09-21T05:29:21.325Z,8.00
2022-09-21T05:32:19.941Z,6.80
2022-09-21T05:35:15.097Z,7.20
2022-09-21T05:37:59.401Z,7.40
2022-09-21T05:40:39.777Z,6.40
2022-09-21T05:43:09.780Z,5.60
2022-09-21T05:45:47.715Z,7.00
2022-09-21T05:48:28.657Z,7.00
2022-09-21T05:51:43.203Z,5.30
2022-09-21T05:54:45.887Z,6.90
2022-09-21T05:57:41.616Z,7.40
2022-09-21T06:00:22.375Z,6.90
2022-09-21T06:03:32.748Z,5.40
2022-09-21T06:06:15.676Z,6.80
2022-09-21T06:08:45.765Z,9.10
2022-09-21T06:11:14.525Z,8.30
2022-09-21T06:16:50.535Z,10.40
2022-09-21T06:19:22.949Z,8.60
2022-09-21T06:21:53.191Z,4.10
2022-09-21T06:24:26.298Z,7.00
2022-09-21T06:26:57.942Z,6.90
2022-09-21T06:29:50.310Z,5.10
2022-09-21T06:32:26.143Z,6.00
2022-09-21T06:34:57.999Z,4.10
2022-09-21T06:37:28.312Z,5.40
2022-09-21T06:40:06.049Z,4.70
2022-09-21T06:42:41.881Z,8.00
2022-09-21T06:45:10.848Z,5.80
2022-09-21T06:58:49.366Z,4.40
2022-09-21T07:01:24.012Z,7.30
2022-09-21T07:04:09.575Z,7.20
2022-09-21T07:06:40.370Z,8.40
2022-09-21T07:12:42.492Z,9.40
2022-09-21T07:15:26.932Z,5.80
2022-09-21T07:19:10.267Z,6.30
2022-09-21T07:22:06.936Z,3.60
2022-09-21T07:33:50.812Z,5.50
2022-09-21T07:33:56.446Z,5.00
2022-09-21T07:48:14.824Z,7.00
2022-09-21T08:02:08.071Z,3.60
2022-09-21T08:05:04.348Z,3.60
2022-09-21T08:14:26.617Z,6.40
2022-09-21T08:17:30.467Z,13.20
2022-09-21T08:21:30.650Z,4.60
2022-09-21T08:24:51.655Z,5.00
2022-09-21T08:27:42.307Z,4.30
2022-09-21T08:34:46.869Z,3.00
2022-09-21T08:38:06.669Z,4.30
2022-09-21T08:45:18.097Z,5.30
2022-09-21T08:49:16.273Z,5.20
2022-09-21T08:57:04.023Z,5.00
2022-09-21T08:59:25.134Z,4.60
2022-09-21T09:00:04.259Z,4.30
2022-09-21T09:03:33.270Z,3.70
2022-09-21T09:09:49.653Z,3.40
2022-09-21T09:12:50.953Z,3.90
2022-09-21T09:16:03.299Z,4.10
2022-09-21T09:19:08.912Z,3.10
2022-09-21T09:22:15.243Z,4.80
2022-09-21T09:26:38.990Z,3.20
2022-09-21T09:29:52.597Z,3.30
2022-09-21T09:33:15.434Z,3.80
2022-09-21T09:41:04.476Z,2.40
2022-09-21T10:03:51.794Z,4.40
2022-09-21T10:07:43.061Z,5.80
2022-09-21T10:10:15.841Z,3.90
2022-09-21T10:23:33.227Z,6.70
2022-09-21T10:34:24.628Z,2.70
2022-09-21T10:38:23.886Z,3.30
2022-09-21T10:45:24.221Z,4.30
2022-09-21T10:48:25.503Z,2.60
2022-09-21T10:51:46.094Z,3.50
2022-09-21T10:57:42.007Z,2.80
2022-09-21T11:05:39.319Z,3.00
2022-09-21T11:08:16.283Z,2.20
2022-09-21T11:12:07.917Z,2.40
2022-09-21T11:15:02.652Z,3.10
2022-09-21T11:17:41.297Z,4.00
2022-09-21T11:20:15.174Z,4.00
2022-09-21T11:22:57.798Z,2.40
2022-09-21T11:25:37.393Z,2.20
2022-09-21T11:28:25.391Z,3.20
2022-09-21T11:31:26.317Z,1.80
2022-09-21T11:34:37.994Z,2.00
2022-09-21T11:38:18.895Z,4.10
2022-09-21T11:41:16.095Z,3.10
2022-09-21T11:45:08.315Z,3.10
2022-09-21T11:48:07.098Z,3.30
2022-09-21T11:50:40.821Z,2.60
2022-09-21T11:54:52.321Z,2.00
2022-09-21T11:57:43.977Z,2.30
2022-09-21T12:00:22.238Z,1.40
2022-09-21T12:03:35.629Z,2.40
2022-09-21T12:06:21.957Z,2.00
2022-09-21T12:09:18.290Z,1.90
2022-09-21T12:12:29.990Z,1.60
2022-09-21T12:15:11.085Z,1.80
2022-09-21T12:21:44.169Z,2.20
2022-09-21T12:24:22.491Z,1.30
2022-09-21T12:26:56.167Z,2.80
2022-09-21T12:29:47.564Z,1.20
2022-09-21T12:32:26.324Z,2.20
2022-09-21T12:34:59.320Z,1.40
2022-09-21T12:37:53.505Z,2.00
2022-09-21T12:40:34.107Z,2.00
2022-09-21T12:43:23.701Z,2.80
2022-09-21T12:46:02.806Z,3.50
2022-09-21T12:48:42.412Z,7.10
2022-09-21T12:51:25.238Z,6.40
2022-09-21T12:56:50.383Z,3.10
2022-09-21T12:59:37.631Z,3.00
2022-09-21T13:02:15.568Z,3.50
2022-09-21T13:05:06.514Z,3.70
2022-09-21T13:08:13.068Z,4.50
2022-09-21T13:10:51.749Z,5.50
2022-09-21T13:13:53.225Z,8.40
2022-09-21T13:16:39.195Z,7.90
2022-09-21T13:19:13.339Z,8.70
2022-09-21T13:21:45.821Z,7.60
2022-09-21T13:27:04.906Z,3.60
2022-09-21T13:30:03.346Z,3.00
2022-09-21T13:33:07.063Z,4.50
2022-09-21T13:36:02.588Z,2.10
2022-09-21T13:39:07.601Z,6.90
2022-09-21T13:41:59.400Z,6.40
2022-09-21T13:44:43.939Z,3.10
2022-09-21T13:47:46.204Z,3.90
2022-09-21T13:50:38.429Z,5.20
2022-09-21T13:53:35.321Z,6.00
2022-09-21T13:56:25.280Z,5.50
2022-09-21T13:58:57.422Z,5.90
2022-09-21T14:01:48.129Z,4.90
2022-09-21T14:04:39.640Z,2.80
2022-09-21T14:07:15.594Z,3.80
2022-09-21T14:09:59.224Z,3.20
2022-09-21T14:12:45.935Z,2.90
2022-09-21T14:15:22.375Z,5.80
2022-09-21T14:18:21.798Z,7.90
2022-09-21T14:21:43.597Z,4.00
2022-09-21T14:25:06.380Z,3.50
2022-09-21T14:30:08.432Z,6.20
2022-09-21T14:37:48.970Z,3.80
2022-09-21T14:40:51.341Z,3.00
2022-09-21T14:43:46.346Z,2.60
2022-09-21T14:47:27.437Z,2.90
2022-09-21T14:50:20.975Z,2.70
2022-09-21T14:54:05.104Z,2.20
2022-09-21T14:57:35.506Z,4.90
2022-09-21T15:00:30.668Z,10.10
2022-09-21T15:03:16.392Z,3.50
2022-09-21T15:05:56.977Z,2.50
2022-09-21T15:09:38.302Z,1.90
2022-09-21T15:12:20.129Z,3.20
2022-09-21T15:15:41.509Z,3.30
2022-09-21T15:18:23.789Z,2.30
2022-09-21T15:21:02.607Z,2.80
2022-09-21T15:23:47.714Z,3.30
2022-09-21T15:26:29.479Z,2.70
2022-09-21T15:29:11.517Z,2.90
2022-09-21T15:31:55.135Z,3.50
2022-09-21T15:34:24.951Z,3.10
2022-09-21T15:37:11.888Z,4.50
2022-09-21T15:39:41.456Z,2.00
2022-09-21T15:42:09.265Z,3.80
2022-09-21T15:44:39.633Z,6.70
2022-09-21T15:47:11.513Z,37.40
2022-09-21T15:49:39.913Z,4.30
2022-09-21T15:52:38.045Z,5.10
2022-09-21T15:55:16.149Z,7.30
2022-09-21T15:57:44.637Z,7.10
2022-09-21T16:00:16.014Z,4.80
2022-09-21T16:02:56.218Z,3.70
2022-09-21T16:05:25.709Z,4.70
2022-09-21T16:08:18.597Z,6.40
2022-09-21T16:10:46.780Z,4.70
2022-09-21T16:13:39.403Z,6.30
2022-09-21T16:16:16.846Z,10.30
2022-09-21T16:18:56.052Z,11.50
2022-09-21T16:21:34.892Z,15.40
2022-09-21T16:24:26.608Z,8.40
2022-09-21T16:27:03.053Z,7.40
2022-09-21T16:29:43.030Z,4.90
2022-09-21T16:32:26.561Z,4.40
2022-09-21T16:35:31.566Z,5.20
2022-09-21T16:37:59.454Z,4.40
2022-09-21T16:40:28.702Z,4.50
2022-09-21T16:42:56.924Z,6.20
2022-09-21T16:45:36.368Z,5.80
2022-09-21T16:48:08.348Z,9.20
2022-09-21T16:50:36.543Z,5.80
2022-09-21T16:53:04.965Z,7.20
2022-09-21T16:55:34.696Z,6.50
2022-09-21T16:58:05.580Z,10.10
2022-09-21T17:00:40.001Z,9.40
2022-09-21T17:03:07.993Z,10.00
2022-09-21T17:05:36.420Z,11.40
2022-09-21T17:08:09.418Z,19.10
2022-09-21T17:10:41.577Z,21.00
2022-09-21T17:13:10.362Z,18.70
2022-09-21T17:15:44.449Z,31.60
2022-09-21T17:18:15.649Z,38.60
2022-09-21T17:20:45.526Z,36.90
2022-09-21T17:23:14.391Z,30.40
2022-09-21T17:25:50.059Z,17.50
2022-09-21T17:28:30.852Z,15.30
2022-09-21T17:31:18.438Z,11.70
2022-09-21T17:33:48.019Z,10.00
2022-09-21T17:36:22.352Z,13.10
2022-09-21T17:38:50.488Z,8.90
2022-09-21T17:41:25.720Z,8.00
2022-09-21T17:44:14.212Z,26.60
2022-09-21T17:47:23.499Z,24.90
2022-09-21T17:49:52.298Z,22.60
2022-09-21T17:52:41.642Z,20.20
2022-09-21T17:55:13.790Z,18.30
2022-09-21T17:58:10.143Z,17.80
2022-09-21T18:01:02.542Z,24.00
2022-09-21T18:03:41.757Z,46.90
2022-09-21T18:06:11.443Z,70.00
2022-09-21T18:08:40.251Z,65.20
2022-09-21T18:12:01.966Z,60.30
2022-09-21T18:15:23.188Z,38.90
2022-09-21T18:18:43.300Z,44.10
2022-09-21T18:21:28.189Z,23.60
2022-09-21T18:24:21.844Z,28.40
2022-09-21T18:26:53.257Z,28.20
2022-09-21T18:29:46.241Z,14.40
2022-09-21T18:32:49.516Z,11.00
2022-09-21T18:36:10.202Z,10.10
2022-09-21T18:39:08.591Z,18.70
2022-09-21T18:42:05.041Z,20.00
2022-09-21T18:45:06.935Z,20.20
2022-09-21T18:47:55.339Z,14.30
2022-09-21T18:50:57.934Z,13.40
2022-09-21T18:53:50.426Z,11.60
2022-09-21T18:56:32.853Z,12.40
2022-09-21T18:59:18.902Z,7.70
2022-09-21T19:01:49.072Z,9.40
2022-09-21T19:04:33.062Z,11.30
2022-09-21T19:07:23.429Z,9.20
2022-09-21T19:10:12.330Z,10.80
2022-09-21T19:13:32.711Z,11.40
2022-09-21T19:16:20.554Z,8.80
2022-09-21T19:19:05.900Z,12.70
2022-09-21T19:21:55.351Z,10.60
2022-09-21T19:24:35.849Z,12.70
2022-09-21T19:27:41.295Z,10.30
2022-09-21T19:33:03.136Z,12.00
2022-09-21T19:35:39.531Z,12.30
2022-09-21T19:38:10.334Z,9.20
2022-09-21T19:40:52.031Z,8.40
2022-09-21T19:44:10.203Z,8.10
2022-09-21T19:47:17.468Z,9.40
2022-09-21T19:50:12.033Z,11.30
2022-09-21T19:52:49.096Z,9.00
2022-09-21T19:55:41.229Z,9.50
2022-09-21T19:58:33.784Z,8.40
2022-09-21T20:01:19.335Z,11.50
2022-09-21T20:04:02.793Z,8.10
2022-09-21T20:07:14.690Z,9.20
2022-09-21T20:13:23.639Z,7.90
2022-09-21T20:16:25.235Z,11.70
2022-09-21T20:19:53.568Z,13.10
2022-09-21T20:22:39.498Z,10.20
2022-09-21T20:25:17.066Z,10.10
2022-09-21T20:27:55.789Z,7.30
2022-09-21T20:30:35.216Z,8.50
2022-09-21T20:33:33.562Z,5.50
2022-09-21T20:36:03.557Z,8.40
2022-09-21T20:38:34.425Z,6.70
2022-09-21T20:41:05.161Z,6.90
2022-09-21T20:43:33.873Z,5.60
2022-09-21T20:46:03.869Z,6.40
2022-09-21T20:48:34.090Z,6.80
2022-09-21T20:51:06.674Z,9.60
2022-09-21T20:56:04.987Z,8.00
2022-09-21T20:58:36.305Z,7.20
2022-09-21T21:01:06.761Z,6.10
2022-09-21T21:03:35.157Z,6.20
2022-09-21T21:06:21.907Z,7.90
2022-09-21T21:08:52.408Z,8.20
2022-09-21T21:11:20.858Z,6.40
2022-09-21T21:14:33.101Z,8.90
2022-09-21T21:17:24.226Z,7.80
2022-09-21T21:19:53.559Z,6.90
2022-09-21T21:22:22.622Z,5.60
2022-09-21T21:24:52.150Z,7.60
2022-09-21T21:27:22.965Z,5.80
2022-09-21T21:29:53.746Z,5.80
2022-09-21T21:32:33.282Z,5.00
2022-09-21T21:35:05.086Z,8.90
2022-09-21T21:37:45.751Z,10.50
2022-09-21T21:40:18.944Z,7.80
2022-09-21T21:42:47.657Z,6.80
2022-09-21T21:45:15.912Z,6.40
2022-09-21T21:47:45.127Z,7.60
2022-09-21T21:50:13.497Z,6.90
2022-09-21T21:52:44.660Z,7.20
2022-09-21T21:55:13.216Z,6.00
2022-09-21T21:57:41.089Z,5.90
2022-09-21T22:00:12.833Z,5.80
2022-09-21T22:02:40.860Z,6.90
2022-09-21T22:05:11.650Z,6.60
2022-09-21T22:07:42.127Z,9.20
2022-09-21T22:10:15.230Z,7.20
2022-09-21T22:12:46.099Z,10.50
2022-09-21T22:15:17.419Z,8.40
2022-09-21T22:17:52.503Z,11.20
2022-09-21T22:20:20.883Z,10.20
2022-09-21T22:22:49.159Z,10.30
2022-09-21T22:25:17.121Z,9.20
2022-09-21T22:27:45.356Z,9.60
2022-09-21T22:30:16.272Z,11.70
2022-09-21T22:32:44.211Z,8.90
2022-09-21T22:35:12.741Z,17.90
2022-09-21T22:37:40.758Z,18.40
2022-09-21T22:40:09.854Z,14.90
2022-09-21T22:42:37.807Z,8.70
2022-09-21T22:45:06.499Z,8.00
2022-09-21T22:47:34.526Z,9.80
2022-09-21T22:50:02.438Z,8.00
2022-09-21T22:52:30.636Z,7.30
2022-09-21T22:54:58.523Z,7.20
2022-09-21T22:57:26.463Z,11.40
2022-09-21T22:59:54.581Z,36.70
2022-09-21T23:02:22.836Z,29.70
2022-09-21T23:04:50.837Z,31.00
2022-09-21T23:07:18.733Z,15.80
2022-09-21T23:09:46.792Z,10.60
2022-09-21T23:12:14.781Z,9.00
2022-09-21T23:14:42.793Z,8.20
2022-09-21T23:17:10.782Z,6.00
2022-09-21T23:19:38.807Z,5.80
2022-09-21T23:22:06.770Z,6.70
2022-09-21T23:24:35.102Z,7.30
2022-09-21T23:27:02.964Z,8.80
2022-09-21T23:29:30.904Z,9.10
2022-09-21T23:32:00.388Z,11.70
2022-09-21T23:34:28.344Z,13.50
2022-09-21T23:36:56.599Z,12.50
2022-09-21T23:39:33.768Z,9.40
2022-09-21T23:42:01.924Z,7.80
2022-09-21T23:44:29.800Z,6.80
2022-09-21T23:46:57.838Z,7.60
2022-09-21T23:49:25.904Z,7.30
2022-09-21T23:51:54.038Z,8.10
2022-09-21T23:54:22.197Z,6.30
2022-09-21T23:56:50.161Z,7.30
2022-09-21T23:59:18.297Z,7.40
